Time;durP1;ratioP1;P1;durP2;ratioP2;P2;SDS_P1;SDS_P2;PMS_P1;PMS_P2;Temp;Humidity;BMP_temperature;BMP_pressure;BME280_temperature;BME280_humidity;BME280_pressure;Samples;Min_cycle;Max_cycle;Signal;HPM_P1;HPM_P2
2023/07/18 00:01:15;;;;;;;5.88;1.65;;;18.30;99.90;;;;;;4963925;29;20174;-93
2023/07/18 00:03:41;;;;;;;7.38;1.95;;;18.30;99.90;;;;;;4959097;29;20063;-92
2023/07/18 00:06:08;;;;;;;6.72;1.80;;;18.30;99.90;;;;;;4959219;29;20509;-93
2023/07/18 00:08:34;;;;;;;6.90;2.08;;;18.30;99.90;;;;;;4967157;29;20079;-92
2023/07/18 00:11:00;;;;;;;4.00;2.00;;;18.40;99.90;;;;;;4968188;29;20027;-93
2023/07/18 00:13:26;;;;;;;8.77;2.13;;;18.20;99.90;;;;;;4966919;29;20379;-92
2023/07/18 00:15:51;;;;;;;8.25;2.03;;;18.20;99.90;;;;;;4964927;29;20034;-93
2023/07/18 00:18:19;;;;;;;4.97;2.03;;;18.30;99.90;;;;;;4967141;29;20027;-92
2023/07/18 00:20:44;;;;;;;3.33;1.90;;;18.30;99.90;;;;;;4957850;29;20051;-92
2023/07/18 00:23:10;;;;;;;6.22;1.90;;;18.30;99.90;;;;;;4958747;29;20023;-94
2023/07/18 00:25:36;;;;;;;6.57;2.17;;;18.30;99.90;;;;;;4959030;29;20031;-93
2023/07/18 00:28:03;;;;;;;4.90;1.55;;;18.50;99.90;;;;;;4958720;29;20110;-93
2023/07/18 00:30:31;;;;;;;6.68;2.47;;;18.30;99.90;;;;;;4959044;29;20480;-92
2023/07/18 00:32:57;;;;;;;6.78;1.77;;;18.50;99.90;;;;;;4959047;29;20019;-93
2023/07/18 00:35:26;;;;;;;3.67;1.80;;;18.20;99.90;;;;;;4958021;29;20086;-92
2023/07/18 00:37:52;;;;;;;5.00;1.77;;;18.20;99.90;;;;;;4958388;29;20046;-92
2023/07/18 00:40:18;;;;;;;6.25;1.85;;;18.20;99.90;;;;;;4958456;29;20115;-93
2023/07/18 00:42:47;;;;;;;10.05;2.05;;;18.20;99.90;;;;;;4957459;29;20118;-91
2023/07/18 00:45:20;;;;;;;7.95;2.65;;;18.40;99.90;;;;;;4958466;29;20027;-93
2023/07/18 00:47:46;;;;;;;3.35;1.65;;;18.10;99.90;;;;;;4957637;28;20027;-92
2023/07/18 00:50:14;;;;;;;8.10;2.30;;;18.00;99.90;;;;;;4958259;29;20525;-91
2023/07/18 00:52:49;;;;;;;9.35;2.38;;;18.60;99.90;;;;;;4957871;29;20027;-92
2023/07/18 00:55:19;;;;;;;10.57;2.13;;;17.90;99.90;;;;;;4957352;28;20389;-93
2023/07/18 00:57:49;;;;;;;5.05;1.90;;;18.70;99.90;;;;;;4957958;29;20545;-93
2023/07/18 01:00:16;;;;;;;6.45;1.80;;;17.80;99.90;;;;;;4958385;28;20058;-93
2023/07/18 01:02:43;;;;;;;6.78;1.83;;;17.80;99.90;;;;;;4957612;28;20391;-93
2023/07/18 01:05:13;;;;;;;10.57;2.08;;;17.80;99.90;;;;;;4957928;28;20507;-94
2023/07/18 01:07:42;;;;;;;8.30;2.13;;;17.80;99.90;;;;;;4957953;28;20110;-93
2023/07/18 01:10:23;;;;;;;8.07;2.95;;;17.70;99.90;;;;;;4958256;29;20058;-93
2023/07/18 01:12:49;;;;;;;7.93;2.25;;;17.70;99.90;;;;;;4958519;29;20055;-92
2023/07/18 01:15:15;;;;;;;5.18;1.70;;;17.70;99.90;;;;;;4975335;28;20016;-93
2023/07/18 01:17:45;;;;;;;4.40;1.63;;;17.70;99.90;;;;;;4980665;28;20035;-94
2023/07/18 01:20:21;;;;;;;3.47;1.77;;;17.70;99.90;;;;;;4980237;28;20035;-93
2023/07/18 01:22:49;;;;;;;5.88;1.45;;;17.70;99.90;;;;;;4981105;28;20024;-94
2023/07/18 01:25:16;;;;;;;8.32;1.98;;;18.50;99.90;;;;;;4974149;28;20114;-93
2023/07/18 01:27:45;;;;;;;4.35;1.65;;;17.20;99.90;;;;;;4963402;28;20106;-93
2023/07/18 01:30:21;;;;;;;5.50;1.50;;;18.60;99.90;;;;;;4959497;28;20035;-93
2023/07/18 01:32:48;;;;;;;5.13;1.65;;;17.60;99.90;;;;;;4958061;28;20031;-93
2023/07/18 01:35:15;;;;;;;7.25;2.30;;;17.60;99.90;;;;;;4957962;29;20023;-93
2023/07/18 01:37:44;;;;;;;3.42;1.50;;;17.60;99.90;;;;;;4957043;29;20460;-93
2023/07/18 01:40:20;;;;;;;4.00;1.83;;;17.60;99.90;;;;;;4957483;29;20399;-93
2023/07/18 01:42:55;;;;;;;3.75;1.60;;;17.90;99.90;;;;;;4957082;29;20032;-93
2023/07/18 01:45:22;;;;;;;5.18;1.52;;;17.70;99.90;;;;;;4957220;29;20031;-91
2023/07/18 01:47:56;;;;;;;5.45;1.45;;;18.40;99.90;;;;;;4957092;29;20468;-92
2023/07/18 01:50:21;;;;;;;5.50;1.92;;;17.50;99.90;;;;;;4957918;29;20023;-93
2023/07/18 01:52:47;;;;;;;2.67;1.30;;;17.50;99.90;;;;;;4956583;29;20036;-91
2023/07/18 01:55:13;;;;;;;5.75;1.65;;;17.60;99.90;;;;;;4961905;29;20024;-91
2023/07/18 01:57:49;;;;;;;3.83;1.50;;;17.50;99.90;;;;;;4967229;29;20082;-93
2023/07/18 02:00:18;;;;;;;3.20;1.13;;;17.50;99.90;;;;;;4955946;28;20031;-93
2023/07/18 02:02:54;;;;;;;5.47;1.60;;;17.50;99.90;;;;;;4956694;29;20110;-93
2023/07/18 02:05:26;;;;;;;9.60;1.88;;;17.50;99.90;;;;;;4956972;29;20349;-93
2023/07/18 02:07:52;;;;;;;6.28;1.95;;;17.20;99.90;;;;;;4956530;29;20027;-93
2023/07/18 02:10:27;;;;;;;2.30;1.48;;;17.50;99.90;;;;;;4956836;29;20023;-94
2023/07/18 02:12:57;;;;;;;6.28;2.00;;;17.50;99.90;;;;;;4956380;29;20047;-93
2023/07/18 02:15:32;;;;;;;3.65;1.23;;;18.20;99.90;;;;;;4957092;29;20035;-93
2023/07/18 02:17:57;;;;;;;6.68;1.60;;;17.50;99.90;;;;;;4965738;29;20035;-92
2023/07/18 02:20:23;;;;;;;3.50;1.63;;;17.50;99.90;;;;;;4967618;29;20057;-91
2023/07/18 02:22:50;;;;;;;3.10;1.70;;;17.40;99.90;;;;;;4964137;29;20034;-92
2023/07/18 02:25:23;;;;;;;5.60;1.77;;;17.40;99.90;;;;;;4958296;29;20068;-93
2023/07/18 02:28:00;;;;;;;4.65;1.50;;;16.80;99.90;;;;;;4956838;29;20146;-92
2023/07/18 02:30:26;;;;;;;5.75;1.65;;;17.30;99.90;;;;;;4956503;29;20236;-92
2023/07/18 02:32:53;;;;;;;6.30;1.80;;;17.40;99.90;;;;;;4956195;29;20140;-92
2023/07/18 02:35:19;;;;;;;3.97;1.52;;;17.30;99.90;;;;;;4952920;29;20035;-92
2023/07/18 02:37:48;;;;;;;5.05;1.42;;;17.30;99.90;;;;;;4955919;29;20086;-91
2023/07/18 02:40:22;;;;;;;5.75;1.58;;;17.30;99.90;;;;;;4956418;29;20038;-92
2023/07/18 02:42:48;;;;;;;3.15;1.60;;;16.80;99.90;;;;;;4955985;29;20039;-92
2023/07/18 02:45:23;;;;;;;3.90;1.70;;;17.20;99.90;;;;;;4956320;29;20118;-92
2023/07/18 02:47:49;;;;;;;3.83;1.90;;;17.20;99.90;;;;;;4955522;29;20031;-92
2023/07/18 02:50:14;;;;;;;7.28;2.03;;;18.00;99.90;;;;;;4956273;29;20023;-94
2023/07/18 02:52:46;;;;;;;5.00;1.88;;;17.10;99.90;;;;;;4955717;29;20070;-92
2023/07/18 02:55:12;;;;;;;3.03;1.80;;;17.00;99.90;;;;;;4955988;29;20031;-93
2023/07/18 02:57:41;;;;;;;3.28;1.50;;;17.10;99.90;;;;;;4955956;29;20090;-93
2023/07/18 03:00:20;;;;;;;3.90;1.70;;;17.20;99.90;;;;;;4955939;29;20086;-92
2023/07/18 03:02:52;;;;;;;3.20;1.75;;;17.10;99.90;;;;;;4952544;29;20043;-93
2023/07/18 03:05:24;;;;;;;5.47;1.48;;;17.00;99.90;;;;;;4956167;29;20028;-92
2023/07/18 03:07:50;;;;;;;7.10;1.98;;;17.00;99.90;;;;;;4955797;29;20197;-92
2023/07/18 03:10:16;;;;;;;5.40;2.42;;;17.00;99.90;;;;;;4955030;28;20048;-92
2023/07/18 03:12:42;;;;;;;7.63;2.65;;;16.90;99.90;;;;;;4970421;29;20087;-92
2023/07/18 03:15:11;;;;;;;3.38;2.30;;;17.70;99.90;;;;;;4962508;29;20031;-94
2023/07/18 03:17:37;;;;;;;5.20;2.65;;;16.90;99.90;;;;;;4956158;29;20019;-94
2023/07/18 03:20:19;;;;;;;4.90;2.40;;;16.90;99.90;;;;;;4955929;29;20054;-94
2023/07/18 03:22:49;;;;;;;5.78;2.97;;;17.10;99.90;;;;;;4955754;29;20023;-93
2023/07/18 03:25:20;;;;;;;4.53;2.10;;;17.00;99.90;;;;;;4955917;29;20081;-95
2023/07/18 03:27:47;;;;;;;7.30;1.92;;;16.80;99.90;;;;;;4955188;29;20077;-94
2023/07/18 03:30:16;;;;;;;4.38;2.63;;;17.60;99.90;;;;;;4955668;29;20042;-94
2023/07/18 03:32:44;;;;;;;5.20;2.17;;;16.90;99.90;;;;;;4955615;29;20050;-93
2023/07/18 03:35:15;;;;;;;4.00;2.33;;;16.60;99.90;;;;;;4956346;29;20053;-93
2023/07/18 03:37:43;;;;;;;;;;;16.70;99.90;;;;;;4955487;29;20534;-94
2023/07/18 03:40:10;;;;;;;6.20;3.08;;;16.70;99.90;;;;;;4956315;29;19906;-93
2023/07/18 03:42:38;;;;;;;4.72;2.35;;;16.60;99.90;;;;;;4955636;29;20526;-94
2023/07/18 03:45:13;;;;;;;2.38;1.60;;;16.30;99.90;;;;;;4955604;29;20035;-94
2023/07/18 03:47:44;;;;;;;8.60;3.22;;;16.50;99.90;;;;;;4956431;29;20546;-93
2023/07/18 03:50:23;;;;;;;5.13;2.45;;;17.40;99.90;;;;;;4956664;29;20027;-94
2023/07/18 03:52:49;;;;;;;6.68;2.40;;;16.60;99.90;;;;;;4959251;29;20035;-92
2023/07/18 03:55:17;;;;;;;5.43;3.30;;;17.40;99.90;;;;;;4966077;29;20034;-93
2023/07/18 03:57:43;;;;;;;5.80;2.33;;;16.50;99.90;;;;;;4957188;29;20051;-94
2023/07/18 04:00:19;;;;;;;3.15;2.00;;;16.50;99.90;;;;;;4954770;29;20166;-93
2023/07/18 04:02:46;;;;;;;9.43;3.20;;;16.50;99.90;;;;;;4955276;29;20102;-92
2023/07/18 04:05:13;;;;;;;5.40;2.45;;;16.50;99.90;;;;;;4955108;29;20027;-93
2023/07/18 04:07:39;;;;;;;3.55;2.17;;;16.40;99.90;;;;;;4957790;29;20051;-93
2023/07/18 04:10:05;;;;;;;5.63;2.50;;;16.40;99.90;;;;;;4957951;29;20035;-94
2023/07/18 04:12:31;;;;;;;4.68;2.80;;;16.40;99.90;;;;;;4957256;29;20051;-93
2023/07/18 04:14:57;;;;;;;6.10;3.05;;;16.40;99.90;;;;;;4956812;29;20098;-91
2023/07/18 04:17:24;;;;;;;7.20;3.08;;;16.40;99.90;;;;;;4956221;29;20036;-92
2023/07/18 04:20:04;;;;;;;9.50;2.88;;;17.30;99.90;;;;;;4957167;28;20051;-92
2023/07/18 04:22:29;;;;;;;8.23;3.05;;;16.40;99.90;;;;;;4993962;28;20023;-93
2023/07/18 04:24:56;;;;;;;9.13;3.15;;;16.40;99.90;;;;;;5001722;28;20054;-92
2023/07/18 04:27:27;;;;;;;4.68;2.83;;;16.50;99.90;;;;;;4999489;28;20039;-93
2023/07/18 04:29:53;;;;;;;10.50;2.80;;;16.40;99.90;;;;;;5001642;28;20031;-94
2023/07/18 04:32:19;;;;;;;8.48;3.45;;;16.50;99.90;;;;;;4985575;28;20085;-93
2023/07/18 04:34:47;;;;;;;8.90;2.83;;;16.50;99.90;;;;;;4980239;28;20152;-94
2023/07/18 04:37:13;;;;;;;9.07;3.22;;;16.50;99.90;;;;;;4976894;28;20031;-94
2023/07/18 04:39:41;;;;;;;6.88;2.92;;;16.50;99.90;;;;;;4977565;28;20023;-92
2023/07/18 04:42:13;;;;;;;5.55;2.88;;;17.30;99.90;;;;;;4976937;28;20031;-93
2023/07/18 04:44:39;;;;;;;5.10;3.10;;;16.50;99.90;;;;;;4977594;28;20039;-92
2023/07/18 04:47:10;;;;;;;6.60;2.65;;;16.50;99.90;;;;;;4977653;28;20029;-93
2023/07/18 04:49:35;;;;;;;6.40;3.08;;;16.50;99.90;;;;;;4976126;28;20113;-93
2023/07/18 04:52:19;;;;;;;5.65;3.13;;;16.50;99.90;;;;;;4977903;28;20046;-92
2023/07/18 04:54:50;;;;;;;7.03;2.95;;;17.30;99.90;;;;;;4976841;28;20498;-92
2023/07/18 04:57:21;;;;;;;4.25;2.90;;;16.50;99.90;;;;;;4977649;28;20041;-92
2023/07/18 04:59:46;;;;;;;6.00;3.78;;;17.20;99.90;;;;;;4977485;28;20026;-93
2023/07/18 05:02:18;;;;;;;10.07;3.58;;;16.60;99.90;;;;;;4977324;28;20086;-92
2023/07/18 05:04:43;;;;;;;5.90;2.95;;;16.60;99.90;;;;;;4977998;28;20090;-93
2023/07/18 05:07:09;;;;;;;9.45;3.60;;;16.60;99.90;;;;;;4977353;28;20023;-93
2023/07/18 05:09:34;;;;;;;7.60;3.05;;;17.00;99.90;;;;;;4976658;28;20034;-93
2023/07/18 05:12:06;;;;;;;10.30;3.22;;;16.60;99.90;;;;;;4978054;28;20471;-93
2023/07/18 05:14:40;;;;;;;7.28;3.53;;;16.60;99.90;;;;;;4978240;28;20023;-93
2023/07/18 05:17:06;;;;;;;9.30;3.85;;;16.70;99.90;;;;;;4980049;28;20067;-93
2023/07/18 05:19:31;;;;;;;7.20;3.70;;;17.60;99.90;;;;;;4975487;28;20066;-93
2023/07/18 05:21:57;;;;;;;11.00;3.78;;;16.70;99.90;;;;;;4976923;28;20054;-93
2023/07/18 05:24:23;;;;;;;7.35;4.93;;;16.70;99.90;;;;;;4976870;28;20047;-93
2023/07/18 05:26:49;;;;;;;11.85;4.80;;;17.60;99.90;;;;;;4977085;28;20027;-93
2023/07/18 05:29:14;;;;;;;7.63;3.53;;;16.70;99.90;;;;;;4977546;28;20035;-93
2023/07/18 05:36:51;;;;;;;8.18;3.90;;;16.80;99.90;;;;;;6012431;23;20025;-94
2023/07/18 05:40:04;;;;;;;6.00;3.67;;;18.00;99.90;;;;;;4957142;28;20040;-95
2023/07/18 05:42:47;;;;;;;6.57;3.72;;;16.90;99.90;;;;;;4991652;23;20063;-94
2023/07/18 05:45:22;;;;;;;9.80;3.60;;;16.80;99.90;;;;;;4974369;28;20043;-95
2023/07/18 05:47:52;;;;;;;8.73;4.00;;;16.60;99.90;;;;;;4970131;28;20038;-95
2023/07/18 05:50:18;;;;;;;12.05;3.95;;;17.10;99.90;;;;;;4968018;29;20031;-95
2023/07/18 05:52:49;;;;;;;9.15;3.88;;;17.00;99.90;;;;;;4975718;29;20050;-94
2023/07/18 05:55:16;;;;;;;8.63;4.90;;;17.00;99.90;;;;;;4985518;28;20081;-95
2023/07/18 05:57:44;;;;;;;12.57;4.97;;;17.10;99.90;;;;;;4986991;28;20034;-94
2023/07/18 06:00:11;;;;;;;12.45;4.63;;;16.90;99.90;;;;;;4984667;28;20030;-95
2023/07/18 06:03:17;;;;;;;8.90;4.40;;;16.60;99.90;;;;;;4984591;28;20019;-95
2023/07/18 06:05:54;;;;;;;15.32;4.60;;;17.10;99.90;;;;;;4981592;28;20114;-94
2023/07/18 06:08:21;;;;;;;12.50;4.65;;;17.10;99.90;;;;;;4981492;28;20479;-94
2023/07/18 06:10:56;;;;;;;21.88;5.97;;;17.10;99.90;;;;;;4979695;28;20026;-94
2023/07/18 06:13:23;;;;;;;12.10;4.88;;;17.00;99.90;;;;;;4980908;28;20030;-95
2023/07/18 06:16:04;;;;;;;16.98;5.10;;;17.20;99.90;;;;;;4983829;28;20029;-94
2023/07/18 06:18:35;;;;;;;10.40;4.80;;;17.20;99.90;;;;;;4977539;28;20046;-93
2023/07/18 06:21:17;;;;;;;14.15;4.97;;;17.20;99.90;;;;;;4978478;28;20035;-94
2023/07/18 06:23:49;;;;;;;14.00;4.97;;;17.30;99.90;;;;;;4983332;28;20512;-95
2023/07/18 06:26:15;;;;;;;25.05;5.93;;;17.50;99.90;;;;;;4980632;28;20040;-95
2023/07/18 06:31:42;;;;;;;16.98;7.15;;;17.30;99.90;;;;;;5807278;23;20054;-95
2023/07/18 06:39:27;;;;;;;19.60;7.95;;;17.10;99.90;;;;;;5390241;23;20418;-93
2023/07/18 06:42:10;;;;;;;25.48;8.90;;;17.90;99.90;;;;;;4962413;29;20023;-96
2023/07/18 06:44:55;;;;;;;17.17;6.70;;;17.20;99.90;;;;;;4969848;28;20039;-96
2023/07/18 06:47:42;;;;;;;;;;;;;;;;;;;;;
2023/07/18 06:50:08;;;;;;;24.65;8.55;;;16.90;99.90;;;;;;4939608;29;20019;-92
2023/07/18 06:52:34;;;;;;;27.50;8.38;;;16.90;99.90;;;;;;4959996;29;20099;-93
2023/07/18 06:55:00;;;;;;;24.35;8.52;;;17.20;99.90;;;;;;4939620;29;20413;-93
2023/07/18 06:57:25;;;;;;;21.63;8.35;;;16.90;99.90;;;;;;4946848;29;20027;-94
2023/07/18 06:59:51;;;;;;;25.10;8.35;;;16.90;99.90;;;;;;4945935;29;20032;-93
2023/07/18 07:02:17;;;;;;;21.13;7.47;;;17.00;99.90;;;;;;4945552;29;20030;-93
2023/07/18 07:04:42;;;;;;;20.33;8.77;;;17.20;99.90;;;;;;4946843;29;20510;-94
2023/07/18 07:07:17;;;;;;;12.35;6.97;;;17.90;99.90;;;;;;5413230;23;20047;-93
2023/07/18 07:09:50;;;;;;;21.52;7.97;;;17.20;99.90;;;;;;4979288;28;20082;-94
2023/07/18 07:12:23;;;;;;;18.23;8.05;;;17.20;99.90;;;;;;4966496;28;20023;-95
2023/07/18 07:14:49;;;;;;;24.23;7.95;;;17.20;99.90;;;;;;4960617;28;20067;-95
2023/07/18 07:17:14;;;;;;;21.52;9.30;;;16.60;99.90;;;;;;4965941;23;20047;-91
2023/07/18 07:20:24;;;;;;;26.05;8.68;;;17.20;99.90;;;;;;4959084;29;20114;-96
2023/07/18 07:26:06;;;;;;;23.45;7.93;;;17.30;99.90;;;;;;5076755;23;19926;-95
2023/07/18 07:28:47;;;;;;;22.70;8.90;;;17.30;99.90;;;;;;5101550;23;20057;-95
2023/07/18 07:31:27;;;;;;;27.10;9.77;;;16.90;99.90;;;;;;4956675;28;20047;-93
2023/07/18 07:33:53;;;;;;;22.65;8.75;;;17.30;99.90;;;;;;5245558;23;20046;-90
2023/07/18 07:36:22;;;;;;;21.50;8.20;;;17.40;99.90;;;;;;5083656;23;20059;-94
2023/07/18 07:38:48;;;;;;;18.73;7.55;;;17.80;99.90;;;;;;4979683;28;20089;-90
2023/07/18 07:42:09;;;;;;;;;;;;;;;;;;;;;
2023/07/18 07:44:41;;;;;;;15.50;7.80;;;17.40;99.90;;;;;;4965012;28;20058;-87
2023/07/18 07:47:18;;;;;;;18.20;7.93;;;17.50;99.90;;;;;;4999037;23;20471;-88
2023/07/18 07:49:56;;;;;;;24.67;9.60;;;18.50;99.90;;;;;;4986917;23;20058;-88
2023/07/18 07:52:22;;;;;;;20.80;8.35;;;17.70;99.90;;;;;;4992352;28;20042;-87
2023/07/18 07:54:50;;;;;;;23.30;8.93;;;17.70;99.90;;;;;;4992525;28;20030;-87
2023/07/18 07:57:23;;;;;;;21.27;8.38;;;17.70;99.90;;;;;;4992879;28;20085;-88
2023/07/18 07:59:50;;;;;;;19.05;8.93;;;17.80;99.90;;;;;;4987515;23;20592;-88
2023/07/18 08:02:24;;;;;;;23.60;9.45;;;17.80;99.90;;;;;;4977376;28;20058;-87
2023/07/18 08:04:50;;;;;;;24.98;10.05;;;18.20;99.90;;;;;;4976175;28;20037;-87
2023/07/18 08:07:22;;;;;;;20.83;9.98;;;17.80;99.90;;;;;;4985699;23;20046;-87
2023/07/18 08:09:47;;;;;;;21.27;10.30;;;17.90;99.90;;;;;;4996320;28;20453;-86
2023/07/18 08:12:13;;;;;;;19.00;10.38;;;17.80;99.90;;;;;;4995945;28;20031;-87
2023/07/18 08:14:48;;;;;;;23.10;9.35;;;18.60;99.90;;;;;;4996342;28;20029;-88
2023/07/18 08:17:15;;;;;;;26.95;10.10;;;17.90;99.90;;;;;;4997145;28;20049;-88
2023/07/18 08:19:40;;;;;;;28.48;10.25;;;17.90;99.90;;;;;;4995912;28;20034;-88
2023/07/18 08:22:08;;;;;;;18.48;8.88;;;18.20;99.90;;;;;;4994629;28;20034;-87
2023/07/18 08:24:34;;;;;;;24.50;10.90;;;18.00;99.90;;;;;;4978602;28;20383;-89
2023/07/18 08:27:00;;;;;;;26.15;10.32;;;18.10;99.90;;;;;;4977014;28;20054;-88
2023/07/18 08:29:27;;;;;;;22.45;9.80;;;18.10;99.90;;;;;;4980051;28;20039;-88
2023/07/18 08:31:54;;;;;;;19.38;9.02;;;18.10;99.90;;;;;;4988245;28;20034;-88
2023/07/18 08:34:20;;;;;;;21.15;9.20;;;18.90;99.90;;;;;;4995195;28;20032;-88
2023/07/18 08:36:47;;;;;;;24.58;10.20;;;18.20;99.90;;;;;;4987753;28;20102;-88
2023/07/18 08:39:16;;;;;;;21.73;8.38;;;18.30;99.90;;;;;;4980090;28;20112;-88
2023/07/18 08:41:51;;;;;;;18.45;9.30;;;18.40;99.90;;;;;;4989100;28;20466;-89
2023/07/18 08:44:30;;;;;;;18.60;7.32;;;18.30;99.90;;;;;;4995873;28;20030;-88
2023/07/18 08:46:56;;;;;;;19.80;8.05;;;18.40;99.90;;;;;;4986674;28;20031;-86
2023/07/18 08:49:27;;;;;;;14.85;6.97;;;18.50;99.90;;;;;;4974880;28;20094;-90
2023/07/18 08:51:53;;;;;;;19.13;7.32;;;19.20;99.90;;;;;;4976303;28;20027;-88
2023/07/18 08:54:18;;;;;;;20.23;8.18;;;19.30;99.90;;;;;;4975402;28;20125;-86
2023/07/18 08:56:44;;;;;;;14.00;6.70;;;18.60;99.90;;;;;;4976165;28;20027;-87
2023/07/18 08:59:11;;;;;;;18.25;7.47;;;18.70;99.90;;;;;;4976251;28;20077;-86
2023/07/18 09:01:48;;;;;;;12.90;5.70;;;18.70;99.90;;;;;;4974916;28;20019;-86
2023/07/18 09:04:14;;;;;;;16.08;7.18;;;18.80;99.90;;;;;;4982424;23;20059;-87
2023/07/18 09:07:10;;;;;;;14.15;6.28;;;19.50;99.90;;;;;;4977091;28;20105;-91
2023/07/18 09:09:49;;;;;;;12.55;4.72;;;18.80;99.90;;;;;;4878623;29;20037;-92
2023/07/18 09:12:24;;;;;;;12.90;5.65;;;18.90;99.90;;;;;;4976794;28;20521;-90
2023/07/18 09:15:27;;;;;;;16.17;5.68;;;18.90;99.90;;;;;;4976651;28;20046;-94
2023/07/18 09:20:56;;;;;;;21.45;6.05;;;19.10;99.90;;;;;;4981468;23;20106;-92
2023/07/18 09:26:25;;;;;;;8.68;3.97;;;19.10;99.90;;;;;;5138878;23;20569;-91
2023/07/18 09:34:58;;;;;;;14.40;4.75;;;19.20;99.90;;;;;;5785707;23;20074;-89
2023/07/18 09:37:24;;;;;;;14.05;4.60;;;19.30;99.90;;;;;;4968972;28;20038;-90
2023/07/18 09:39:50;;;;;;;22.00;4.78;;;19.30;99.90;;;;;;4964540;28;20471;-91
2023/07/18 09:42:46;;;;;;;13.25;4.72;;;19.40;99.90;;;;;;4976528;28;20438;-91
2023/07/18 09:45:15;;;;;;;10.15;4.13;;;19.40;99.90;;;;;;4974234;28;20047;-89
2023/07/18 09:47:58;;;;;;;13.38;3.95;;;19.50;99.90;;;;;;4974122;28;20390;-89
2023/07/18 09:50:26;;;;;;;11.30;5.00;;;19.50;99.90;;;;;;4981080;23;20498;-90
2023/07/18 09:53:03;;;;;;;13.57;5.18;;;20.10;99.90;;;;;;4982665;28;20477;-91
2023/07/18 09:55:43;;;;;;;11.75;5.35;;;19.50;99.90;;;;;;4993393;28;20057;-91
2023/07/18 09:58:12;;;;;;;13.77;5.23;;;19.40;99.90;;;;;;4972332;28;20023;-89
2023/07/18 10:01:04;;;;;;;13.55;5.38;;;19.20;99.90;;;;;;4974324;28;20027;-89
2023/07/18 10:03:32;;;;;;;10.43;4.78;;;19.20;99.90;;;;;;4959488;28;20042;-88
2023/07/18 10:06:01;;;;;;;9.05;4.35;;;20.20;99.90;;;;;;4966976;28;20031;-91
2023/07/18 10:08:27;;;;;;;11.38;5.45;;;19.60;99.90;;;;;;4963103;28;20037;-90
2023/07/18 10:11:20;;;;;;;7.18;4.90;;;19.60;99.90;;;;;;4964162;28;20032;-90
2023/07/18 10:13:55;;;;;;;8.77;4.97;;;19.70;99.90;;;;;;4953064;28;20109;-88
2023/07/18 10:16:21;;;;;;;6.00;4.10;;;19.70;99.90;;;;;;4965138;28;20078;-88
2023/07/18 10:18:49;;;;;;;13.00;5.10;;;20.40;99.90;;;;;;4963425;28;20047;-89
2023/07/18 10:21:43;;;;;;;8.55;4.78;;;19.70;99.90;;;;;;4961688;28;20027;-90
2023/07/18 10:24:21;;;;;;;5.13;4.05;;;19.60;99.90;;;;;;4956385;29;20489;-90
2023/07/18 10:27:08;;;;;;;11.60;4.85;;;19.60;99.90;;;;;;4959936;28;20093;-91
2023/07/18 10:30:00;;;;;;;14.60;5.97;;;19.80;99.90;;;;;;4960269;29;20091;-87
2023/07/18 10:32:31;;;;;;;11.65;4.93;;;19.90;99.90;;;;;;4960531;29;20032;-88
2023/07/18 10:34:57;;;;;;;5.45;4.45;;;19.80;99.90;;;;;;4957713;29;20035;-88
2023/07/18 10:37:42;;;;;;;12.10;6.00;;;19.80;99.90;;;;;;4959346;28;20031;-88
2023/07/18 10:40:29;;;;;;;9.63;5.30;;;19.90;99.90;;;;;;4955925;29;20030;-88
2023/07/18 10:42:55;;;;;;;10.18;5.50;;;19.80;99.90;;;;;;4955200;28;20086;-89
2023/07/18 10:45:20;;;;;;;9.05;4.93;;;20.20;99.90;;;;;;4955808;29;20035;-88
2023/07/18 10:47:46;;;;;;;5.43;4.28;;;19.90;99.90;;;;;;4956490;28;20054;-87
2023/07/18 10:50:27;;;;;;;5.57;4.68;;;20.00;99.90;;;;;;4959271;28;20039;-88
2023/07/18 10:52:52;;;;;;;7.18;4.75;;;20.10;99.90;;;;;;4955586;29;20058;-90
2023/07/18 10:55:18;;;;;;;7.88;5.57;;;20.00;99.90;;;;;;4954704;28;20388;-87
2023/07/18 10:57:46;;;;;;;8.45;5.03;;;20.10;99.90;;;;;;4955037;29;20065;-91
2023/07/18 11:00:12;;;;;;;7.45;4.55;;;20.20;99.90;;;;;;4954318;28;20038;-90
2023/07/18 11:02:41;;;;;;;10.23;4.95;;;20.20;99.90;;;;;;4955009;28;20432;-89
2023/07/18 11:05:26;;;;;;;7.85;4.63;;;20.70;99.90;;;;;;4955602;28;20067;-89
2023/07/18 11:07:52;;;;;;;7.55;5.40;;;20.10;99.90;;;;;;4954494;29;20654;-88
2023/07/18 11:10:28;;;;;;;11.85;4.78;;;20.20;99.90;;;;;;4955261;28;20031;-90
2023/07/18 11:13:06;;;;;;;7.60;3.95;;;20.20;99.90;;;;;;4955809;29;20023;-88
2023/07/18 11:15:58;;;;;;;6.78;3.47;;;20.30;99.90;;;;;;4954489;28;20055;-89
2023/07/18 11:18:23;;;;;;;7.65;4.38;;;20.40;99.90;;;;;;4954879;29;20019;-87
2023/07/18 11:21:10;;;;;;;13.55;4.75;;;21.10;99.90;;;;;;4954499;28;20042;-87
2023/07/18 11:23:37;;;;;;;4.75;3.47;;;20.50;99.90;;;;;;4955737;29;20039;-89
2023/07/18 11:26:29;;;;;;;10.82;4.38;;;20.50;99.90;;;;;;4960753;28;20364;-87
2023/07/18 11:28:58;;;;;;;10.23;3.42;;;20.40;99.90;;;;;;4950384;29;20063;-89
2023/07/18 11:31:41;;;;;;;6.88;3.90;;;20.50;99.90;;;;;;4955579;28;20538;-89
2023/07/18 11:34:23;;;;;;;4.80;2.78;;;21.10;99.90;;;;;;4959248;29;20487;-89
2023/07/18 11:36:50;;;;;;;6.22;3.22;;;20.60;99.90;;;;;;4957081;29;20403;-87
2023/07/18 11:39:30;;;;;;;8.32;3.60;;;21.30;99.90;;;;;;4958766;28;20039;-90
2023/07/18 11:42:24;;;;;;;8.65;3.10;;;20.60;99.90;;;;;;4958366;29;20383;-89
2023/07/18 11:44:54;;;;;;;5.38;2.97;;;20.60;99.90;;;;;;4980631;23;20065;-89
2023/07/18 11:47:25;;;;;;;5.90;2.67;;;20.60;99.90;;;;;;4977857;28;20034;-89
2023/07/18 11:50:01;;;;;;;4.72;2.40;;;20.70;99.90;;;;;;4981213;28;20278;-89
2023/07/18 11:52:27;;;;;;;8.05;3.10;;;20.70;99.90;;;;;;4978368;28;20102;-89
2023/07/18 11:55:06;;;;;;;6.63;2.88;;;20.70;99.90;;;;;;4984167;23;20065;-89
2023/07/18 11:57:54;;;;;;;6.28;2.53;;;20.80;99.90;;;;;;4984189;23;20047;-89
2023/07/18 12:00:25;;;;;;;7.50;3.42;;;21.40;99.90;;;;;;4979103;23;20114;-89
2023/07/18 12:05:29;;;;;;;5.55;3.15;;;21.00;99.90;;;;;;4968358;23;20046;-87
2023/07/18 12:07:55;;;;;;;5.07;3.17;;;20.90;99.90;;;;;;4956198;28;20023;-87
2023/07/18 12:10:21;;;;;;;5.75;3.20;;;21.00;99.90;;;;;;4986533;28;20023;-88
2023/07/18 12:12:53;;;;;;;5.68;3.10;;;21.50;99.90;;;;;;4981015;28;20018;-88
2023/07/18 12:15:18;;;;;;;3.75;2.63;;;21.00;99.90;;;;;;4968179;28;20023;-87
2023/07/18 12:17:44;;;;;;;4.45;2.60;;;21.70;99.90;;;;;;4988017;28;20030;-87
2023/07/18 12:20:10;;;;;;;6.55;3.13;;;21.00;99.90;;;;;;4977810;28;20030;-87
2023/07/18 12:22:37;;;;;;;3.45;2.00;;;21.10;99.90;;;;;;4980048;28;20110;-87
2023/07/18 12:25:20;;;;;;;2.78;2.17;;;21.40;99.90;;;;;;4982957;28;20121;-89
2023/07/18 12:28:03;;;;;;;4.50;2.35;;;21.20;99.90;;;;;;4983329;28;20034;-90
2023/07/18 12:30:31;;;;;;;7.45;3.08;;;21.20;99.90;;;;;;4996726;28;20110;-90
2023/07/18 12:32:58;;;;;;;6.60;2.80;;;21.30;99.90;;;;;;4964949;23;20114;-89
2023/07/18 12:35:39;;;;;;;4.95;2.67;;;21.40;99.90;;;;;;4965225;28;20046;-93
2023/07/18 12:38:06;;;;;;;8.80;2.80;;;21.20;99.90;;;;;;4944919;28;20035;-87
2023/07/18 12:40:32;;;;;;;4.30;2.25;;;21.40;99.90;;;;;;4956136;29;20539;-88
2023/07/18 12:42:58;;;;;;;4.75;2.15;;;21.30;99.90;;;;;;4970264;28;20034;-87
2023/07/18 12:45:24;;;;;;;5.30;2.40;;;21.50;99.90;;;;;;4963877;28;20082;-88
2023/07/18 12:47:50;;;;;;;5.95;3.15;;;21.50;99.90;;;;;;4970623;28;20117;-89
2023/07/18 12:50:33;;;;;;;4.80;2.20;;;22.20;99.90;;;;;;4962926;28;20118;-91
2023/07/18 12:52:59;;;;;;;5.03;2.55;;;21.20;99.90;;;;;;4967774;23;20087;-90
2023/07/18 12:55:31;;;;;;;2.45;1.90;;;21.70;99.90;;;;;;4970138;28;20043;-90
2023/07/18 12:57:56;;;;;;;3.65;1.63;;;21.70;99.90;;;;;;4956939;29;20034;-90
2023/07/18 13:00:22;;;;;;;6.65;1.98;;;22.40;99.90;;;;;;4955923;29;20034;-89
2023/07/18 13:02:51;;;;;;;6.88;2.10;;;22.30;99.90;;;;;;4975021;28;20034;-88
2023/07/18 13:05:17;;;;;;;7.30;2.17;;;22.10;99.90;;;;;;4976586;28;20118;-83
2023/07/18 13:07:42;;;;;;;4.40;1.92;;;21.90;99.90;;;;;;4971678;28;20439;-83
2023/07/18 13:10:08;;;;;;;3.72;1.58;;;22.00;99.90;;;;;;4964761;28;20023;-82
2023/07/18 13:12:34;;;;;;;3.10;1.67;;;22.00;99.60;;;;;;4967289;28;20058;-83
2023/07/18 13:14:59;;;;;;;5.30;1.88;;;22.10;98.30;;;;;;4963107;28;20027;-83
2023/07/18 13:17:25;;;;;;;2.78;1.35;;;22.10;98.50;;;;;;4966699;28;20023;-83
2023/07/18 13:19:50;;;;;;;2.35;1.17;;;22.20;98.60;;;;;;4974831;28;20027;-83
2023/07/18 13:22:17;;;;;;;5.75;1.83;;;22.30;97.90;;;;;;4972102;28;20551;-83
2023/07/18 13:24:42;;;;;;;2.05;1.00;;;22.30;97.20;;;;;;4959065;28;20399;-84
2023/07/18 13:27:08;;;;;;;1.83;1.20;;;22.30;96.70;;;;;;4972981;28;20022;-84
2023/07/18 13:29:34;;;;;;;1.40;1.20;;;22.40;96.70;;;;;;4966233;28;20174;-83
2023/07/18 13:31:59;;;;;;;2.05;1.20;;;22.50;96.80;;;;;;4964138;28;20019;-83
2023/07/18 13:34:25;;;;;;;2.72;0.85;;;22.60;96.70;;;;;;4966530;28;20022;-83
2023/07/18 13:36:53;;;;;;;5.55;1.48;;;22.70;96.60;;;;;;4972419;28;20048;-87